• Join FlightAware (Why Join?)
  • Login
  • US Flag 
11:17PM EDT


 

Airport Tracker/Info


-or-


 

Live Flight TrackerFlight Track Log ✈ DAL8887 ✈ 11-Aug-2013 ✈ KMDW - KMSP

Flight Track Log - Related Links

Times and Time Zones

All times are in EDT time to prevent confusion due to time zone crossing. See the DAL8887 flight status page for this flight to view local times or setup timezone preferences in your user account.

Time Position Orientation Groundspeed Altitude Reporting Facility
EDT Latitude Longitude Course Direction KTS MPH feet Rate Location/Type
06:58PM 41.7667 -87.8000 257° West 172 198 2,300  Level Chicago TRACON
06:59PM 41.7569 -87.8578 257° West 225 259 3,300 1,920 Climbing Chicago Center
07:00PM 41.7692 -87.9497 280° West 248 285 6,000 3,060 Climbing Chicago Center
07:01PM 41.7836 -88.0394 282° West 249 287 9,700 3,000 Climbing Chicago Center
07:02PM 41.7953 -88.1561 278° West 272 313 12,200 2,700 Climbing Chicago Center
07:03PM 41.8047 -88.2558 277° West 274 315 15,400 2,520 Climbing Chicago Center
07:04PM 41.8567 -88.3394 310° West 292 336 17,500 1,320 Climbing Chicago Center
07:05PM 41.9228 -88.4400 311° West 345 397 18,200 1,380 Climbing Chicago Center
07:06PM 41.9964 -88.5506 312° West 393 452 20,400 2,220 Climbing Chicago Center
07:07PM 42.0842 -88.6892 311° West 409 471 22,800 2,220 Climbing Chicago Center
07:08PM 42.0967 -88.8528 276° West 419 482 25,100 2,640 Climbing Chicago Center
07:09PM 42.1086 -89.0022 276° West 402 463 28,300 2,340 Climbing Chicago Center
07:10PM 42.1308 -89.1433 282° West 386 444 30,000 780 Climbing Chicago Center
07:11PM 42.1514 -89.2919 281° West 396 456 30,000  Level Chicago Center
07:12PM 42.1733 -89.4456 281° West 411 473 30,000  Level Chicago Center
07:13PM 42.2011 -89.6278 282° West 423 487 30,000  Level Chicago Center
07:15PM 42.2225 -89.7794 281° West 413 475 30,000  Level Chicago Center
07:16PM 42.2422 -89.9211 281° West 416 479 30,000  Level Chicago Center
07:17PM 42.2631 -90.0739 280° West 416 479 30,000  Level Chicago Center
07:18PM 42.2883 -90.2564 281° West 416 479 30,000  Level Chicago Center
07:19PM 42.3089 -90.4078 280° West 415 478 30,000  Level Chicago Center
07:20PM 42.3289 -90.5600 280° West 416 479 30,000  Level Chicago Center
07:21PM 42.3492 -90.7114 280° West 414 476 30,000  Level Chicago Center
07:22PM 42.3739 -90.8636 282° West 417 480 30,000  Level Chicago Center
07:23PM 42.4522 -91.0239 304° West 429 494 30,000  Level Chicago Center
07:24PM 42.5169 -91.1575 303° West 428 493 30,000  Level Chicago Center
07:25PM 42.5806 -91.2900 303° West 423 487 30,000  Level Chicago Center
07:26PM 42.6436 -91.4208 303° West 420 483 30,000  Level Chicago Center
07:27PM 42.7153 -91.5714 303° West 421 484 30,000  Level Chicago Center
07:28PM 42.7806 -91.7081 303° West 427 491 30,000  Level Chicago Center
07:29PM 42.8422 -91.8394 303° West 434 499 30,000  Level Chicago Center
07:30PM 42.9203 -92.0031 303° West 433 498 30,000  Level Chicago Center
07:31PM 42.9453 -92.0581 302° West 433 498 30,000  Level Minneapolis Center
07:32PM 43.0231 -92.2206 303° West 430 495 30,000  Level Minneapolis Center
07:33PM 43.0867 -92.3561 303° West 428 493 30,000  Level Minneapolis Center
07:34PM 43.1472 -92.4878 302° West 418 481 30,000  Level Minneapolis Center
07:35PM 43.2069 -92.6186 302° West 411 473 30,000  Level Minneapolis Center
07:36PM 43.2675 -92.7511 302° West 413 475 30,000  Level Minneapolis Center
07:37PM 43.3406 -92.9144 302° West 420 483 30,000  Level Minneapolis Center
07:38PM 43.3903 -93.0242 302° West 424 488 30,000 -1,380 Level Minneapolis Center
07:39PM 43.4689 -93.1878 304° West 423 487 27,200 -2,520 Descending Minneapolis Center
07:40PM 43.5625 -93.2839 323° Northwest 439 505 24,800 -2,040 Descending Minneapolis Center
07:41PM 43.6869 -93.2747 North 448 516 23,100 -2,220 Descending Minneapolis Center
07:42PM 43.8083 -93.2631 North 442 509 20,300 -2,640 Descending Minneapolis Center
07:43PM 43.9225 -93.2522 North 419 482 17,700 -2,640 Descending Minneapolis Center
07:44PM 44.0339 -93.2417 North 406 467 14,900 -3,180 Descending Minneapolis Center
07:45PM 44.1633 -93.2283 North 391 450 11,200 -2,400 Descending Minneapolis Center
07:46PM 44.2678 -93.2181 North 378 435 10,000 -600 Descending Minneapolis Center
07:47PM 44.3489 -93.2100 North 368 423 10,000  Level Minneapolis Center
07:48PM 44.4661 -93.1989 North 352 405 10,000  Level Minneapolis Center
07:49PM 44.5622 -93.1889 North 345 397 10,000 -300 Level Minneapolis Center
07:50PM 44.6442 -93.1903 359° North 286 329 9,500 -1,020 Descending Minneapolis Center
07:51PM 44.7169 -93.2358 336° Northwest 282 325 8,000 -780 Descending Minneapolis Center
07:52PM 44.7908 -93.2828 336° Northwest 275 316 8,000 -840 Level Minneapolis Center
07:53PM 44.8356 -93.3656 307° West 269 310 6,300 -1,980 Descending Minneapolis Center
07:54PM 44.8806 -93.4644 303° West 251 289 4,000 -1,500 Descending Minneapolis Center
07:55PM 44.9281 -93.4325 25° Northeast 215 247 3,300 -540 Descending Minneapolis Center
07:56PM 44.9406 -93.3614 76° East 192 221 2,900 -720 Descending Minneapolis Center
07:58PM 44.9119 -93.2900 119° Southeast 172 198 1,800 -840 Descending Minneapolis Center
07:59PM 44.8906 -93.2400 121° Southeast 152 175 1,000 -840 Descending Minneapolis Center
08:01PM 44.8820 -93.2218 North  Level Estimated